Time,TemperatureF,DewpointF,PressureIn,WindDirection,WindDirectionDegrees,WindSpeedMPH,WindSpeedGustMPH,Humidity,HourlyPrecipIn,Conditions,Clouds,dailyrainin,SolarRadiationWatts/m^2,SoftwareType,DateUTC
2013-08-27 00:10:00,66.0,49.0,29.97,WNW,293,0.0,-999.0,54,-99.99,,,0.00,0,weatherlink.com 1.10,2013-08-27 06:10:00,
2013-08-27 00:25:00,65.8,48.0,29.97,WNW,288,0.0,-999.0,53,-99.99,,,0.00,0,weatherlink.com 1.10,2013-08-27 06:25:00,
2013-08-27 00:40:00,65.5,48.0,29.97,WNW,289,0.0,-999.0,53,-99.99,,,0.00,0,weatherlink.com 1.10,2013-08-27 06:40:00,
2013-08-27 00:55:00,65.0,47.0,29.97,WNW,289,0.0,-999.0,53,-99.99,,,0.00,0,weatherlink.com 1.10,2013-08-27 06:55:00,
2013-08-27 01:10:00,65.2,47.0,29.97,West,281,0.0,-999.0,52,-99.99,,,0.00,0,weatherlink.com 1.10,2013-08-27 07:10:00,
2013-08-27 01:25:00,65.0,47.0,29.97,West,277,0.0,-999.0,52,-99.99,,,0.00,0,weatherlink.com 1.10,2013-08-27 07:25:00,
2013-08-27 01:40:00,65.0,47.0,29.97,WSW,252,0.0,-999.0,52,-99.99,,,0.00,0,weatherlink.com 1.10,2013-08-27 07:40:00,
2013-08-27 01:55:00,65.0,46.0,29.97,WSW,243,4.0,-999.0,51,-99.99,,,0.00,0,weatherlink.com 1.10,2013-08-27 07:55:00,
2013-08-27 02:10:00,64.3,46.0,29.96,WSW,244,0.0,-999.0,52,-99.99,,,0.00,0,weatherlink.com 1.10,2013-08-27 08:10:00,
2013-08-27 02:25:00,63.5,46.0,29.97,WSW,242,0.0,-999.0,54,-99.99,,,0.00,0,weatherlink.com 1.10,2013-08-27 08:25:00,
2013-08-27 02:40:00,62.8,46.0,29.97,WSW,242,0.0,-999.0,55,-99.99,,,0.00,0,weatherlink.com 1.10,2013-08-27 08:40:00,
2013-08-27 03:10:00,61.9,47.0,29.97,WSW,242,0.0,-999.0,58,-99.99,,,0.00,0,weatherlink.com 1.10,2013-08-27 09:10:00,
2013-08-27 03:25:00,61.9,47.0,29.98,WSW,242,0.0,-999.0,58,-99.99,,,0.00,0,weatherlink.com 1.10,2013-08-27 09:25:00,
2013-08-27 03:40:00,62.1,47.0,29.98,WSW,242,0.0,-999.0,58,-99.99,,,0.00,0,weatherlink.com 1.10,2013-08-27 09:40:00,
2013-08-27 03:55:00,62.8,47.0,29.98,WSW,242,0.0,-999.0,57,-99.99,,,0.00,0,weatherlink.com 1.10,2013-08-27 09:55:00,
2013-08-27 04:10:00,63.6,47.0,29.97,WSW,242,0.0,-999.0,55,-99.99,,,0.00,0,weatherlink.com 1.10,2013-08-27 10:10:00,
2013-08-27 04:26:00,63.4,47.0,29.97,WSW,243,0.0,-999.0,56,-99.99,,,0.00,0,weatherlink.com 1.10,2013-08-27 10:26:00,
2013-08-27 04:41:00,62.5,48.0,29.97,WSW,244,0.0,-999.0,59,-99.99,,,0.00,0,weatherlink.com 1.10,2013-08-27 10:41:00,
2013-08-27 04:56:00,61.1,48.0,29.97,North,5,0.0,-999.0,62,-99.99,,,0.00,0,weatherlink.com 1.10,2013-08-27 10:56:00,
2013-08-27 05:11:00,60.4,47.0,29.97,North,355,0.0,-999.0,62,-99.99,,,0.00,0,weatherlink.com 1.10,2013-08-27 11:11:00,
2013-08-27 05:26:00,60.4,47.0,29.98,NW,304,0.0,-999.0,62,-99.99,,,0.00,0,weatherlink.com 1.10,2013-08-27 11:26:00,
2013-08-27 05:41:00,61.2,47.0,29.98,WNW,302,0.0,-999.0,60,-99.99,,,0.00,0,weatherlink.com 1.10,2013-08-27 11:41:00,
2013-08-27 05:56:00,61.1,47.0,29.98,WNW,302,0.0,-999.0,61,-99.99,,,0.00,0,weatherlink.com 1.10,2013-08-27 11:56:00,
2013-08-27 06:11:00,60.9,47.0,29.99,WNW,300,0.0,-999.0,60,-99.99,,,0.00,0,weatherlink.com 1.10,2013-08-27 12:11:00,
2013-08-27 06:26:00,60.8,46.0,29.99,WNW,300,0.0,-999.0,59,-99.99,,,0.00,0,weatherlink.com 1.10,2013-08-27 12:26:00,
2013-08-27 06:41:00,60.9,46.0,30.00,WNW,300,0.0,-999.0,58,-99.99,,,0.00,9,weatherlink.com 1.10,2013-08-27 12:41:00,
2013-08-27 06:56:00,61.7,46.0,30.00,WNW,300,0.0,-999.0,57,-99.99,,,0.00,23,weatherlink.com 1.10,2013-08-27 12:56:00,
2013-08-27 07:11:00,62.6,46.0,30.00,WNW,300,0.0,-999.0,56,-99.99,,,0.00,26,weatherlink.com 1.10,2013-08-27 13:11:00,
2013-08-27 07:26:00,62.6,46.0,30.00,WNW,300,0.0,-999.0,55,-99.99,,,0.00,58,weatherlink.com 1.10,2013-08-27 13:26:00,
2013-08-27 07:41:00,62.1,46.0,30.01,WNW,300,0.0,-999.0,56,-99.99,,,0.00,190,weatherlink.com 1.10,2013-08-27 13:41:00,
2013-08-27 07:56:00,62.9,47.0,30.01,WSW,250,0.0,-999.0,56,-99.99,,,0.00,272,weatherlink.com 1.10,2013-08-27 13:56:00,
2013-08-27 08:11:00,64.5,47.0,30.01,WSW,243,0.0,-999.0,54,-99.99,,,0.00,341,weatherlink.com 1.10,2013-08-27 14:11:00,
2013-08-27 08:26:00,65.3,47.0,30.01,WSW,241,0.0,-999.0,51,-99.99,,,0.00,318,weatherlink.com 1.10,2013-08-27 14:26:00,
2013-08-27 08:41:00,66.8,47.0,30.01,WSW,239,0.0,-999.0,50,-99.99,,,0.00,359,weatherlink.com 1.10,2013-08-27 14:41:00,
2013-08-27 08:56:00,68.5,48.0,30.01,West,260,0.0,-999.0,49,-99.99,,,0.00,466,weatherlink.com 1.10,2013-08-27 14:56:00,
2013-08-27 09:11:00,70.2,48.0,30.01,WSW,256,0.0,-999.0,46,-99.99,,,0.00,475,weatherlink.com 1.10,2013-08-27 15:11:00,
2013-08-27 09:26:00,71.0,49.0,30.01,West,263,0.0,-999.0,45,-99.99,,,0.00,555,weatherlink.com 1.10,2013-08-27 15:26:00,
2013-08-27 09:42:00,72.4,49.0,30.01,SW,215,0.0,-999.0,44,-99.99,,,0.00,647,weatherlink.com 1.10,2013-08-27 15:42:00,
2013-08-27 09:57:00,73.0,49.0,30.01,South,169,0.0,-999.0,43,-99.99,,,0.00,701,weatherlink.com 1.10,2013-08-27 15:57:00,
2013-08-27 10:12:00,72.9,50.0,30.01,SSW,200,0.0,-999.0,44,-99.99,,,0.00,334,weatherlink.com 1.10,2013-08-27 16:12:00,
2013-08-27 10:27:00,72.5,49.0,30.01,South,169,0.0,-999.0,44,-99.99,,,0.00,427,weatherlink.com 1.10,2013-08-27 16:27:00,
2013-08-27 10:42:00,73.8,49.0,30.01,West,275,0.0,-999.0,42,-99.99,,,0.00,621,weatherlink.com 1.10,2013-08-27 16:42:00,
2013-08-27 10:57:00,75.7,49.0,30.00,WSW,238,2.0,-999.0,39,-99.99,,,0.00,847,weatherlink.com 1.10,2013-08-27 16:57:00,
2013-08-27 11:12:00,77.1,49.0,30.00,WNW,286,0.0,-999.0,37,-99.99,,,0.00,628,weatherlink.com 1.10,2013-08-27 17:12:00,
2013-08-27 11:27:00,77.6,49.0,29.99,SW,220,4.0,-999.0,36,-99.99,,,0.00,921,weatherlink.com 1.10,2013-08-27 17:27:00,
2013-08-27 11:42:00,78.6,50.0,29.98,SW,216,7.0,-999.0,37,-99.99,,,0.00,745,weatherlink.com 1.10,2013-08-27 17:42:00,
2013-08-27 11:57:00,78.4,48.0,29.98,SW,215,0.0,-999.0,34,-99.99,,,0.00,526,weatherlink.com 1.10,2013-08-27 17:57:00,
2013-08-27 12:12:00,78.7,48.0,29.98,SE,134,0.0,-999.0,34,-99.99,,,0.00,568,weatherlink.com 1.10,2013-08-27 18:12:00,
2013-08-27 12:27:00,81.2,48.0,29.97,SW,229,1.0,-999.0,31,-99.99,,,0.00,884,weatherlink.com 1.10,2013-08-27 18:27:00,
2013-08-27 12:42:00,80.6,50.0,29.96,NNW,346,0.0,-999.0,34,-99.99,,,0.00,958,weatherlink.com 1.10,2013-08-27 18:42:00,
2013-08-27 12:57:00,80.1,46.0,29.95,SE,131,0.0,-999.0,30,-99.99,,,0.00,900,weatherlink.com 1.10,2013-08-27 18:57:00,
2013-08-27 13:12:00,80.6,46.0,29.95,East,86,3.0,-999.0,30,-99.99,,,0.00,729,weatherlink.com 1.10,2013-08-27 19:12:00,
2013-08-27 13:27:00,81.1,46.0,29.95,SSE,165,0.0,-999.0,29,-99.99,,,0.00,981,weatherlink.com 1.10,2013-08-27 19:27:00,
2013-08-27 13:42:00,81.4,45.0,29.94,East,96,0.0,-999.0,28,-99.99,,,0.00,316,weatherlink.com 1.10,2013-08-27 19:42:00,
2013-08-27 13:57:00,81.2,46.0,29.94,South,179,0.0,-999.0,29,-99.99,,,0.00,418,weatherlink.com 1.10,2013-08-27 19:57:00,
2013-08-27 14:12:00,81.2,47.0,29.94,ENE,72,0.0,-999.0,30,-99.99,,,0.00,350,weatherlink.com 1.10,2013-08-27 20:12:00,
2013-08-27 14:27:00,81.7,46.0,29.93,NNE,14,0.0,-999.0,29,-99.99,,,0.00,301,weatherlink.com 1.10,2013-08-27 20:27:00,
2013-08-27 14:42:00,82.5,46.0,29.93,ENE,67,4.0,-999.0,28,-99.99,,,0.00,330,weatherlink.com 1.10,2013-08-27 20:42:00,
2013-08-27 14:57:00,83.9,47.0,29.92,NW,317,0.0,-999.0,28,-99.99,,,0.00,332,weatherlink.com 1.10,2013-08-27 20:57:00,
2013-08-27 15:13:00,85.4,48.0,29.91,NNE,12,1.0,-999.0,27,-99.99,,,0.00,439,weatherlink.com 1.10,2013-08-27 21:13:00,
2013-08-27 15:57:00,83.5,48.0,29.90,NNW,345,1.0,-999.0,29,-99.99,,,0.00,197,weatherlink.com 1.10,2013-08-27 21:57:00,
2013-08-27 16:12:00,82.9,48.0,29.90,NNE,15,6.0,-999.0,30,-99.99,,,0.00,158,weatherlink.com 1.10,2013-08-27 22:12:00,
2013-08-27 16:27:00,82.6,48.0,29.89,North,360,0.0,-999.0,30,-99.99,,,0.00,234,weatherlink.com 1.10,2013-08-27 22:27:00,
2013-08-27 16:42:00,82.8,47.0,29.89,North,355,4.0,-999.0,29,-99.99,,,0.00,200,weatherlink.com 1.10,2013-08-27 22:42:00,
2013-08-27 16:58:00,83.0,48.0,29.88,NNW,339,5.0,-999.0,29,-99.99,,,0.00,225,weatherlink.com 1.10,2013-08-27 22:58:00,
2013-08-27 17:13:00,83.1,48.0,29.88,NNE,15,0.0,-999.0,29,-99.99,,,0.00,176,weatherlink.com 1.10,2013-08-27 23:13:00,
2013-08-27 17:28:00,83.0,47.0,29.88,NNE,20,4.0,-999.0,28,-99.99,,,0.00,169,weatherlink.com 1.10,2013-08-27 23:28:00,
2013-08-27 17:43:00,83.1,47.0,29.88,NE,39,0.0,-999.0,28,-99.99,,,0.00,294,weatherlink.com 1.10,2013-08-27 23:43:00,
2013-08-27 17:58:00,83.7,47.0,29.88,NE,47,0.0,-999.0,28,-99.99,,,0.00,376,weatherlink.com 1.10,2013-08-27 23:58:00,
2013-08-27 18:13:00,83.8,46.0,29.88,East,98,6.0,-999.0,27,-99.99,,,0.00,295,weatherlink.com 1.10,2013-08-28 00:13:00,
2013-08-27 18:28:00,83.8,46.0,29.88,SSE,165,0.0,-999.0,27,-99.99,,,0.00,253,weatherlink.com 1.10,2013-08-28 00:28:00,
2013-08-27 18:43:00,83.8,46.0,29.88,South,177,2.0,-999.0,27,-99.99,,,0.00,105,weatherlink.com 1.10,2013-08-28 00:43:00,
2013-08-27 18:58:00,82.9,46.0,29.88,ESE,120,5.0,-999.0,27,-99.99,,,0.00,60,weatherlink.com 1.10,2013-08-28 00:58:00,
2013-08-27 19:13:00,82.4,46.0,29.88,SSE,157,0.0,-999.0,28,-99.99,,,0.00,21,weatherlink.com 1.10,2013-08-28 01:13:00,
2013-08-27 19:28:00,81.8,46.0,29.88,SSE,157,0.0,-999.0,28,-99.99,,,0.00,12,weatherlink.com 1.10,2013-08-28 01:28:00,
2013-08-27 19:43:00,81.7,46.0,29.88,ESE,103,0.0,-999.0,28,-99.99,,,0.00,5,weatherlink.com 1.10,2013-08-28 01:43:00,
2013-08-27 19:58:00,81.0,48.0,29.88,NE,36,0.0,-999.0,31,-99.99,,,0.00,0,weatherlink.com 1.10,2013-08-28 01:58:00,
2013-08-27 20:13:00,79.4,48.0,29.89,NE,36,0.0,-999.0,33,-99.99,,,0.00,0,weatherlink.com 1.10,2013-08-28 02:13:00,
2013-08-27 20:28:00,79.0,47.0,29.91,WNW,286,8.0,-999.0,33,-99.99,,,0.00,0,weatherlink.com 1.10,2013-08-28 02:28:00,
2013-08-27 20:43:00,77.8,47.0,29.91,WNW,295,19.0,-999.0,34,-99.99,,,0.00,0,weatherlink.com 1.10,2013-08-28 02:43:00,
2013-08-27 20:58:00,74.0,50.0,29.90,WNW,295,22.0,-999.0,43,-99.99,,,0.00,0,weatherlink.com 1.10,2013-08-28 02:58:00,
2013-08-27 21:13:00,73.1,50.0,29.91,WNW,290,18.0,-999.0,44,-99.99,,,0.00,0,weatherlink.com 1.10,2013-08-28 03:13:00,
2013-08-27 21:28:00,71.7,50.0,29.92,WNW,288,8.0,-999.0,47,-99.99,,,0.00,0,weatherlink.com 1.10,2013-08-28 03:28:00,
2013-08-27 21:43:00,71.2,50.0,29.92,WNW,290,9.0,-999.0,47,-99.99,,,0.00,0,weatherlink.com 1.10,2013-08-28 03:43:00,
2013-08-27 21:58:00,70.9,50.0,29.93,WNW,296,11.0,-999.0,47,-99.99,,,0.00,0,weatherlink.com 1.10,2013-08-28 03:58:00,
2013-08-27 22:13:00,70.3,50.0,29.93,WNW,290,6.0,-999.0,48,-99.99,,,0.00,0,weatherlink.com 1.10,2013-08-28 04:13:00,
2013-08-27 22:28:00,69.4,50.0,29.93,NW,323,6.0,-999.0,51,-99.99,,,0.00,0,weatherlink.com 1.10,2013-08-28 04:28:00,
2013-08-27 22:43:00,68.1,51.0,29.93,NNW,327,4.0,-999.0,54,-99.99,,,0.00,0,weatherlink.com 1.10,2013-08-28 04:43:00,
2013-08-27 22:58:00,67.3,51.0,29.94,WNW,299,8.0,-999.0,56,-99.99,,,0.00,0,weatherlink.com 1.10,2013-08-28 04:58:00,
2013-08-27 23:13:00,66.8,50.0,29.93,WNW,296,4.0,-999.0,56,-99.99,,,0.00,0,weatherlink.com 1.10,2013-08-28 05:13:00,
2013-08-27 23:28:00,66.9,50.0,29.94,WNW,297,1.0,-999.0,55,-99.99,,,0.00,0,weatherlink.com 1.10,2013-08-28 05:28:00,
2013-08-27 23:43:00,66.6,50.0,29.94,NW,304,0.0,-999.0,55,-99.99,,,0.00,0,weatherlink.com 1.10,2013-08-28 05:43:00,
2013-08-27 23:58:00,66.3,50.0,29.93,NW,313,0.0,-999.0,56,-99.99,,,0.00,0,weatherlink.com 1.10,2013-08-28 05:58:00,